createdAt,value
2023-05-03T00:03:31.653Z,63.04
2023-05-03T00:08:32.335Z,63.95
2023-05-03T00:13:34.374Z,65.10
2023-05-03T00:18:35.027Z,64.74
2023-05-03T00:23:35.669Z,65.61
2023-05-03T00:28:37.635Z,65.33
2023-05-03T00:33:38.949Z,65.94
2023-05-03T00:38:40.367Z,66.32
2023-05-03T00:43:42.387Z,66.58
2023-05-03T00:48:43.161Z,66.74
2023-05-03T00:53:44.241Z,66.51
2023-05-03T00:58:46.271Z,66.74
2023-05-03T01:03:47.484Z,66.61
2023-05-03T01:08:59.581Z,66.38
2023-05-03T01:14:07.346Z,65.78
2023-05-03T01:19:20.543Z,66.47
2023-05-03T01:24:25.116Z,66.72
2023-05-03T01:29:27.120Z,66.16
2023-05-03T01:34:34.752Z,63.62
2023-05-03T01:39:40.861Z,63.03
2023-05-03T01:44:44.859Z,62.84
2023-05-03T01:49:46.089Z,61.79
2023-05-03T01:54:46.752Z,60.71
2023-05-03T01:59:48.840Z,61.33
2023-05-03T02:04:49.732Z,59.92
2023-05-03T02:09:50.417Z,59.22
2023-05-03T02:14:52.581Z,58.86
2023-05-03T02:19:53.904Z,58.09
2023-05-03T02:24:54.552Z,57.40
2023-05-03T02:29:56.578Z,57.25
2023-05-03T02:34:58.044Z,57.87
2023-05-03T02:39:59.342Z,57.88
2023-05-03T02:45:01.464Z,57.73
2023-05-03T02:50:03.686Z,57.62
2023-05-03T02:55:09.652Z,58.29
2023-05-03T03:00:15.763Z,57.88
2023-05-03T03:05:17.726Z,58.12
2023-05-03T03:10:22.387Z,58.68
2023-05-03T03:15:24.562Z,57.77
2023-05-03T03:20:25.829Z,58.09
2023-05-03T03:25:26.733Z,58.63
2023-05-03T03:30:31.481Z,58.61
2023-05-03T03:35:49.725Z,61.27
2023-05-03T03:40:52.734Z,62.74
2023-05-03T03:45:55.273Z,62.33
2023-05-03T03:50:56.889Z,61.02
2023-05-03T03:56:03.579Z,61.22
2023-05-03T04:01:06.919Z,61.04
2023-05-03T04:06:07.691Z,60.79
2023-05-03T04:11:12.308Z,60.34
2023-05-03T04:16:19.140Z,61.41
2023-05-03T04:21:20.874Z,62.10
2023-05-03T04:26:31.417Z,61.85
2023-05-03T04:31:40.864Z,61.12
2023-05-03T04:36:42.323Z,60.61
2023-05-03T04:41:45.713Z,60.30
2023-05-03T04:46:50.731Z,59.89
2023-05-03T04:51:53.311Z,59.77
2023-05-03T04:56:54.401Z,58.06
2023-05-03T05:01:56.426Z,58.06
2023-05-03T05:06:59.363Z,57.22
2023-05-03T05:12:04.093Z,56.49
2023-05-03T05:17:11.644Z,56.57
2023-05-03T05:22:12.419Z,56.50
2023-05-03T05:27:21.677Z,54.91
2023-05-03T05:32:24.447Z,55.88
2023-05-03T05:37:27.458Z,56.08
2023-05-03T05:42:31.199Z,55.92
2023-05-03T05:47:33.580Z,55.71
2023-05-03T05:52:34.401Z,55.77
2023-05-03T05:57:36.218Z,54.70
2023-05-03T06:02:39.376Z,54.47
2023-05-03T06:07:40.644Z,54.25
2023-05-03T06:12:41.610Z,54.29
2023-05-03T06:17:49.496Z,53.56
2023-05-03T06:22:51.451Z,53.92
2023-05-03T06:27:52.351Z,54.06
2023-05-03T06:32:57.767Z,54.10
2023-05-03T06:37:58.579Z,54.19
2023-05-03T06:42:59.784Z,53.94
2023-05-03T06:48:11.250Z,54.29
2023-05-03T06:53:12.161Z,54.98
2023-05-03T06:58:12.959Z,54.89
2023-05-03T07:03:15.048Z,53.97
2023-05-03T07:08:15.881Z,53.82
2023-05-03T07:13:16.726Z,53.05
2023-05-03T07:18:18.751Z,52.76
2023-05-03T07:23:19.614Z,52.19
2023-05-03T07:28:20.434Z,51.82
2023-05-03T07:33:22.587Z,49.82
2023-05-03T07:38:23.337Z,50.42
2023-05-03T07:43:24.531Z,50.87
2023-05-03T07:48:27.182Z,47.04
2023-05-03T07:53:27.898Z,47.37
2023-05-03T07:58:39.011Z,47.76
2023-05-03T08:03:43.528Z,47.55
2023-05-03T08:08:44.607Z,47.38
2023-05-03T08:13:45.273Z,46.73
2023-05-03T08:18:47.715Z,45.58
2023-05-03T08:23:48.617Z,45.29
2023-05-03T08:28:49.389Z,45.38
2023-05-03T08:33:51.783Z,44.57
2023-05-03T08:38:52.434Z,44.68
2023-05-03T08:43:54.569Z,43.85
2023-05-03T08:48:56.702Z,43.77
2023-05-03T08:53:57.336Z,43.06
2023-05-03T08:59:01.415Z,43.71
2023-05-03T09:04:04.332Z,44.11
2023-05-03T09:09:07.563Z,44.35
2023-05-03T09:14:12.932Z,42.24
2023-05-03T09:19:16.376Z,42.02
2023-05-03T09:24:18.745Z,42.25
2023-05-03T09:29:30.003Z,40.84
2023-05-03T09:34:32.521Z,41.39
2023-05-03T09:39:34.672Z,41.10
2023-05-03T09:44:42.794Z,41.78
2023-05-03T09:49:45.421Z,42.26
2023-05-03T09:54:47.593Z,40.63
2023-05-03T09:59:50.804Z,41.48
2023-05-03T10:04:56.624Z,41.11
2023-05-03T10:09:58.805Z,41.52
2023-05-03T10:15:01.977Z,41.13
2023-05-03T10:20:14.066Z,41.79
2023-05-03T10:25:16.131Z,41.18
2023-05-03T10:30:29.229Z,41.24
2023-05-03T10:35:31.323Z,40.95
2023-05-03T10:40:44.575Z,40.81
2023-05-03T10:45:46.272Z,40.24
2023-05-03T10:50:51.006Z,39.23
2023-05-03T10:56:02.647Z,39.64
2023-05-03T11:01:04.680Z,39.84
2023-05-03T11:06:07.571Z,40.84
2023-05-03T11:11:09.543Z,40.49
2023-05-03T11:16:10.285Z,38.59
2023-05-03T11:21:13.606Z,38.60
2023-05-03T11:26:15.030Z,40.32
2023-05-03T11:31:16.088Z,38.58
2023-05-03T11:36:18.373Z,38.21
2023-05-03T11:41:19.313Z,36.73
2023-05-03T11:46:23.783Z,37.04
2023-05-03T11:51:27.202Z,36.34
2023-05-03T11:56:28.635Z,36.17
2023-05-03T12:01:30.683Z,36.26
2023-05-03T12:06:35.985Z,35.01
2023-05-03T12:11:43.671Z,35.14
2023-05-03T12:16:50.303Z,36.49
2023-05-03T12:22:04.056Z,35.36
2023-05-03T12:27:14.260Z,35.72
2023-05-03T12:32:15.531Z,35.63
2023-05-03T12:37:17.863Z,34.74
2023-05-03T12:42:21.956Z,34.99
2023-05-03T12:47:28.380Z,33.63
2023-05-03T12:57:37.259Z,34.16
2023-05-03T13:07:43.921Z,32.93
2023-05-03T13:12:45.000Z,35.37
2023-05-03T13:17:47.214Z,33.91
2023-05-03T13:22:50.280Z,33.74
2023-05-03T13:27:53.185Z,34.46
2023-05-03T13:32:53.874Z,33.67
2023-05-03T13:37:55.910Z,33.95
2023-05-03T13:42:56.621Z,33.61
2023-05-03T13:48:15.705Z,34.75
2023-05-03T13:53:19.383Z,34.22
2023-05-03T13:58:20.480Z,33.28
2023-05-03T14:03:21.306Z,34.01
2023-05-03T14:08:23.467Z,34.78
2023-05-03T14:13:24.902Z,36.32
2023-05-03T14:18:25.839Z,35.29
2023-05-03T14:23:27.913Z,34.92
2023-05-03T14:28:29.079Z,34.31
2023-05-03T14:33:29.732Z,35.15
2023-05-03T14:38:31.925Z,35.60
2023-05-03T14:43:33.097Z,37.74
2023-05-03T14:48:34.072Z,33.34
2023-05-03T14:53:37.192Z,33.92
2023-05-03T14:58:38.053Z,33.23
2023-05-03T15:03:38.961Z,33.55
2023-05-03T15:08:41.300Z,33.40
2023-05-03T15:13:42.197Z,34.98
2023-05-03T15:18:43.993Z,34.70
2023-05-03T15:23:46.022Z,32.22
2023-05-03T15:28:46.929Z,32.70
2023-05-03T15:33:47.629Z,34.13
2023-05-03T15:38:50.321Z,33.66
2023-05-03T15:43:51.226Z,33.35
2023-05-03T15:48:53.029Z,33.28
2023-05-03T15:53:55.217Z,33.40
2023-05-03T15:58:56.445Z,33.87
2023-05-03T16:03:57.154Z,34.25
2023-05-03T16:08:59.204Z,32.55
2023-05-03T16:13:59.871Z,32.56
2023-05-03T16:19:00.512Z,33.05
2023-05-03T16:24:03.389Z,32.41
2023-05-03T16:29:04.508Z,32.20
2023-05-03T16:34:05.221Z,30.40
2023-05-03T16:39:07.871Z,29.00
2023-05-03T16:44:09.088Z,27.54
2023-05-03T16:49:09.764Z,26.89
2023-05-03T16:54:11.969Z,26.03
2023-05-03T16:59:12.700Z,26.11
2023-05-03T17:04:13.575Z,25.03
2023-05-03T17:09:15.608Z,25.98
2023-05-03T17:14:18.981Z,26.12
2023-05-03T17:19:19.630Z,25.68
2023-05-03T17:24:23.332Z,24.90
2023-05-03T17:29:24.006Z,25.55
2023-05-03T17:34:25.013Z,25.56
2023-05-03T17:39:28.382Z,26.86
2023-05-03T17:44:29.069Z,28.99
2023-05-03T17:49:31.234Z,30.44
2023-05-03T17:54:35.099Z,34.37
2023-05-03T17:59:35.794Z,36.00
2023-05-03T18:04:36.461Z,37.80
2023-05-03T18:09:38.467Z,38.89
2023-05-03T18:14:41.279Z,39.55
2023-05-03T18:19:44.585Z,39.31
2023-05-03T18:24:46.636Z,39.89
2023-05-03T18:29:47.452Z,42.01
2023-05-03T18:34:48.118Z,43.13
2023-05-03T18:39:50.179Z,44.08
2023-05-03T18:44:50.826Z,42.70
2023-05-03T18:49:52.954Z,45.65
2023-05-03T18:54:56.587Z,46.53
2023-05-03T19:00:01.192Z,45.16
2023-05-03T19:05:11.614Z,45.82
2023-05-03T19:10:16.393Z,48.08
2023-05-03T19:15:17.154Z,46.61
2023-05-03T19:20:18.342Z,47.03
2023-05-03T19:25:20.770Z,46.98
2023-05-03T19:30:21.651Z,46.06
2023-05-03T19:35:22.331Z,47.08
2023-05-03T19:40:24.823Z,48.49
2023-05-03T19:45:25.662Z,47.03
2023-05-03T19:50:26.601Z,49.57
2023-05-03T19:55:28.680Z,49.45
2023-05-03T20:00:29.844Z,50.93
2023-05-03T20:05:30.988Z,50.50
2023-05-03T20:10:36.348Z,50.27
2023-05-03T20:15:37.611Z,51.82
2023-05-03T20:20:38.287Z,52.75
2023-05-03T20:25:40.286Z,53.97
2023-05-03T20:30:40.977Z,55.56
2023-05-03T20:35:41.693Z,55.88
2023-05-03T20:40:43.665Z,56.81
2023-05-03T20:45:44.329Z,57.47
2023-05-03T20:50:45.053Z,58.26
2023-05-03T20:55:47.092Z,56.37
2023-05-03T21:00:47.856Z,57.89
2023-05-03T21:05:49.222Z,59.70
2023-05-03T21:10:51.240Z,60.45
2023-05-03T21:15:51.986Z,60.71
2023-05-03T21:20:54.054Z,62.43
2023-05-03T21:25:56.502Z,62.05
2023-05-03T21:30:57.262Z,62.47
2023-05-03T21:35:57.949Z,63.12
2023-05-03T21:41:05.217Z,63.41
2023-05-03T21:46:07.834Z,63.79
2023-05-03T21:51:08.814Z,64.68
2023-05-03T21:56:10.794Z,65.24
2023-05-03T22:01:11.713Z,65.77
2023-05-03T22:06:12.649Z,66.10
2023-05-03T22:11:15.215Z,66.61
2023-05-03T22:16:16.057Z,67.28
2023-05-03T22:21:17.139Z,66.79
2023-05-03T22:26:19.131Z,67.67
2023-05-03T22:31:19.873Z,68.37
2023-05-03T22:36:20.693Z,68.84
2023-05-03T22:41:23.057Z,68.55
2023-05-03T22:46:23.974Z,69.57
2023-05-03T22:51:24.932Z,69.43
2023-05-03T22:56:27.315Z,69.38
2023-05-03T23:01:28.492Z,70.35
2023-05-03T23:06:29.199Z,70.83
2023-05-03T23:11:31.172Z,70.59
2023-05-03T23:16:31.873Z,71.91
2023-05-03T23:21:33.894Z,71.77
2023-05-03T23:26:35.899Z,71.68
2023-05-03T23:31:38.505Z,71.18
2023-05-03T23:36:39.640Z,72.31
2023-05-03T23:41:41.713Z,72.23
2023-05-03T23:46:42.395Z,71.97
2023-05-03T23:51:43.065Z,72.30
2023-05-03T23:56:45.089Z,73.16
